sensor_id;sensor_type;location;lat;lon;timestamp;temperature;humidity
6662;DHT22;3367;48.714;8.994;2023-03-26T00:01:08;6.30;99.90
6662;DHT22;3367;48.714;8.994;2023-03-26T00:03:35;6.30;99.90
6662;DHT22;3367;48.714;8.994;2023-03-26T00:06:04;6.30;99.90
6662;DHT22;3367;48.714;8.994;2023-03-26T00:08:32;6.40;99.90
6662;DHT22;3367;48.714;8.994;2023-03-26T00:10:59;6.40;99.90
6662;DHT22;3367;48.714;8.994;2023-03-26T00:13:26;6.40;99.90
6662;DHT22;3367;48.714;8.994;2023-03-26T00:15:52;6.50;73.10
6662;DHT22;3367;48.714;8.994;2023-03-26T00:18:21;6.50;1.00
6662;DHT22;3367;48.714;8.994;2023-03-26T00:20:54;6.50;1.00
6662;DHT22;3367;48.714;8.994;2023-03-26T00:23:21;6.50;1.00
6662;DHT22;3367;48.714;8.994;2023-03-26T00:25:47;6.50;1.00
6662;DHT22;3367;48.714;8.994;2023-03-26T00:28:15;6.50;1.00
6662;DHT22;3367;48.714;8.994;2023-03-26T00:30:42;6.50;1.00
6662;DHT22;3367;48.714;8.994;2023-03-26T00:33:09;6.40;1.00
6662;DHT22;3367;48.714;8.994;2023-03-26T00:35:38;6.40;1.00
6662;DHT22;3367;48.714;8.994;2023-03-26T00:38:04;6.40;1.00
6662;DHT22;3367;48.714;8.994;2023-03-26T00:40:31;6.40;1.00
6662;DHT22;3367;48.714;8.994;2023-03-26T00:43:01;6.40;1.00
6662;DHT22;3367;48.714;8.994;2023-03-26T00:45:34;6.30;1.00
6662;DHT22;3367;48.714;8.994;2023-03-26T00:48:01;6.30;1.00
6662;DHT22;3367;48.714;8.994;2023-03-26T00:50:28;6.30;5.70
6662;DHT22;3367;48.714;8.994;2023-03-26T00:52:56;6.30;58.40
6662;DHT22;3367;48.714;8.994;2023-03-26T00:55:23;6.30;4.40
6662;DHT22;3367;48.714;8.994;2023-03-26T00:57:49;6.20;97.20
6662;DHT22;3367;48.714;8.994;2023-03-26T01:00:17;6.20;99.90
6662;DHT22;3367;48.714;8.994;2023-03-26T01:02:44;6.20;99.90
6662;DHT22;3367;48.714;8.994;2023-03-26T01:05:40;6.30;99.90
6662;DHT22;3367;48.714;8.994;2023-03-26T01:08:17;6.30;1.00
6662;DHT22;3367;48.714;8.994;2023-03-26T01:10:45;6.30;99.90
6662;DHT22;3367;48.714;8.994;2023-03-26T01:13:16;6.30;99.90
6662;DHT22;3367;48.714;8.994;2023-03-26T01:15:44;6.30;99.90
6662;DHT22;3367;48.714;8.994;2023-03-26T01:18:14;6.30;99.90
6662;DHT22;3367;48.714;8.994;2023-03-26T01:20:41;6.30;99.90
6662;DHT22;3367;48.714;8.994;2023-03-26T01:23:14;6.30;99.90
6662;DHT22;3367;48.714;8.994;2023-03-26T01:25:49;6.20;99.90
6662;DHT22;3367;48.714;8.994;2023-03-26T01:28:20;6.30;99.90
6662;DHT22;3367;48.714;8.994;2023-03-26T01:30:51;6.20;99.90
6662;DHT22;3367;48.714;8.994;2023-03-26T01:33:26;6.20;99.90
6662;DHT22;3367;48.714;8.994;2023-03-26T01:35:59;6.20;99.90
6662;DHT22;3367;48.714;8.994;2023-03-26T01:38:33;6.20;99.90
6662;DHT22;3367;48.714;8.994;2023-03-26T01:41:07;6.20;99.90
6662;DHT22;3367;48.714;8.994;2023-03-26T01:43:38;6.20;99.90
6662;DHT22;3367;48.714;8.994;2023-03-26T01:46:09;6.20;99.90
6662;DHT22;3367;48.714;8.994;2023-03-26T01:48:38;6.20;99.90
6662;DHT22;3367;48.714;8.994;2023-03-26T01:51:06;6.20;99.90
6662;DHT22;3367;48.714;8.994;2023-03-26T01:53:36;6.20;99.90
6662;DHT22;3367;48.714;8.994;2023-03-26T01:56:10;6.20;1.00
6662;DHT22;3367;48.714;8.994;2023-03-26T01:58:47;6.20;99.90
6662;DHT22;3367;48.714;8.994;2023-03-26T02:01:24;6.20;99.90
6662;DHT22;3367;48.714;8.994;2023-03-26T02:03:59;6.20;1.00
6662;DHT22;3367;48.714;8.994;2023-03-26T02:06:32;6.20;99.90
6662;DHT22;3367;48.714;8.994;2023-03-26T02:09:03;6.10;99.90
6662;DHT22;3367;48.714;8.994;2023-03-26T02:11:33;6.10;99.90
6662;DHT22;3367;48.714;8.994;2023-03-26T02:14:02;6.20;1.00
6662;DHT22;3367;48.714;8.994;2023-03-26T02:16:29;6.20;1.00
6662;DHT22;3367;48.714;8.994;2023-03-26T02:18:56;6.20;1.00
6662;DHT22;3367;48.714;8.994;2023-03-26T02:21:24;6.20;1.00
6662;DHT22;3367;48.714;8.994;2023-03-26T02:23:55;6.20;99.90
6662;DHT22;3367;48.714;8.994;2023-03-26T02:26:28;6.20;99.90
6662;DHT22;3367;48.714;8.994;2023-03-26T02:28:58;6.20;99.90
6662;DHT22;3367;48.714;8.994;2023-03-26T02:31:26;6.20;99.90
6662;DHT22;3367;48.714;8.994;2023-03-26T02:33:54;6.20;99.90
6662;DHT22;3367;48.714;8.994;2023-03-26T02:36:22;6.20;80.30
6662;DHT22;3367;48.714;8.994;2023-03-26T02:38:52;6.30;1.00
6662;DHT22;3367;48.714;8.994;2023-03-26T02:41:20;6.20;1.00
6662;DHT22;3367;48.714;8.994;2023-03-26T02:43:46;6.20;1.00
6662;DHT22;3367;48.714;8.994;2023-03-26T02:46:14;6.20;1.00
6662;DHT22;3367;48.714;8.994;2023-03-26T02:48:41;6.20;1.00
6662;DHT22;3367;48.714;8.994;2023-03-26T02:51:08;6.20;1.00
6662;DHT22;3367;48.714;8.994;2023-03-26T02:53:35;6.20;1.00
6662;DHT22;3367;48.714;8.994;2023-03-26T02:56:02;6.10;1.00
6662;DHT22;3367;48.714;8.994;2023-03-26T02:58:29;6.20;1.00
6662;DHT22;3367;48.714;8.994;2023-03-26T03:00:56;6.10;1.00
6662;DHT22;3367;48.714;8.994;2023-03-26T03:03:25;6.10;1.00
6662;DHT22;3367;48.714;8.994;2023-03-26T03:05:53;6.20;1.00
6662;DHT22;3367;48.714;8.994;2023-03-26T03:08:21;6.10;1.00
6662;DHT22;3367;48.714;8.994;2023-03-26T03:10:56;6.10;1.00
6662;DHT22;3367;48.714;8.994;2023-03-26T03:13:23;6.10;1.00
6662;DHT22;3367;48.714;8.994;2023-03-26T03:15:50;6.10;1.00
6662;DHT22;3367;48.714;8.994;2023-03-26T03:18:16;6.10;1.00
6662;DHT22;3367;48.714;8.994;2023-03-26T03:20:45;6.10;1.00
6662;DHT22;3367;48.714;8.994;2023-03-26T03:23:12;6.20;1.00
6662;DHT22;3367;48.714;8.994;2023-03-26T03:25:39;6.20;1.00
6662;DHT22;3367;48.714;8.994;2023-03-26T03:28:06;6.20;1.00
6662;DHT22;3367;48.714;8.994;2023-03-26T03:30:33;6.20;1.00
6662;DHT22;3367;48.714;8.994;2023-03-26T03:33:00;6.20;24.50
6662;DHT22;3367;48.714;8.994;2023-03-26T03:35:28;6.20;17.80
6662;DHT22;3367;48.714;8.994;2023-03-26T03:37:57;6.20;99.90
6662;DHT22;3367;48.714;8.994;2023-03-26T03:40:24;6.30;99.90
6662;DHT22;3367;48.714;8.994;2023-03-26T03:42:51;6.30;90.50
6662;DHT22;3367;48.714;8.994;2023-03-26T03:45:18;6.30;1.00
6662;DHT22;3367;48.714;8.994;2023-03-26T03:47:45;6.30;1.00
6662;DHT22;3367;48.714;8.994;2023-03-26T03:50:11;6.40;1.00
6662;DHT22;3367;48.714;8.994;2023-03-26T03:52:38;6.40;1.00
6662;DHT22;3367;48.714;8.994;2023-03-26T03:55:07;6.40;1.00
6662;DHT22;3367;48.714;8.994;2023-03-26T03:57:34;6.40;1.00
6662;DHT22;3367;48.714;8.994;2023-03-26T04:00:01;6.40;1.00
6662;DHT22;3367;48.714;8.994;2023-03-26T04:02:33;6.40;1.00
6662;DHT22;3367;48.714;8.994;2023-03-26T04:05:00;6.40;1.00
6662;DHT22;3367;48.714;8.994;2023-03-26T04:07:28;6.40;1.00
6662;DHT22;3367;48.714;8.994;2023-03-26T04:09:56;6.40;1.00
6662;DHT22;3367;48.714;8.994;2023-03-26T04:12:25;6.40;1.00
6662;DHT22;3367;48.714;8.994;2023-03-26T04:14:52;6.40;1.00
6662;DHT22;3367;48.714;8.994;2023-03-26T04:17:19;6.40;1.00
6662;DHT22;3367;48.714;8.994;2023-03-26T04:19:46;6.40;1.00
6662;DHT22;3367;48.714;8.994;2023-03-26T04:22:14;6.40;1.00
6662;DHT22;3367;48.714;8.994;2023-03-26T04:24:43;6.40;1.00
6662;DHT22;3367;48.714;8.994;2023-03-26T04:27:12;6.30;1.00
6662;DHT22;3367;48.714;8.994;2023-03-26T04:29:44;6.30;1.00
6662;DHT22;3367;48.714;8.994;2023-03-26T04:32:15;6.30;1.00
6662;DHT22;3367;48.714;8.994;2023-03-26T04:34:44;6.30;1.00
6662;DHT22;3367;48.714;8.994;2023-03-26T04:37:19;6.30;1.00
6662;DHT22;3367;48.714;8.994;2023-03-26T04:39:49;6.30;1.00
6662;DHT22;3367;48.714;8.994;2023-03-26T04:42:15;6.30;1.00
6662;DHT22;3367;48.714;8.994;2023-03-26T04:44:45;6.30;1.00
6662;DHT22;3367;48.714;8.994;2023-03-26T04:47:15;6.30;1.00
6662;DHT22;3367;48.714;8.994;2023-03-26T04:49:43;6.30;1.00
6662;DHT22;3367;48.714;8.994;2023-03-26T04:52:10;6.30;1.00
6662;DHT22;3367;48.714;8.994;2023-03-26T04:54:37;6.30;1.00
6662;DHT22;3367;48.714;8.994;2023-03-26T04:57:07;6.40;1.00
6662;DHT22;3367;48.714;8.994;2023-03-26T04:59:36;6.40;1.00
6662;DHT22;3367;48.714;8.994;2023-03-26T05:02:05;6.40;1.00
6662;DHT22;3367;48.714;8.994;2023-03-26T05:04:32;6.40;1.00
6662;DHT22;3367;48.714;8.994;2023-03-26T05:07:01;6.40;1.00
6662;DHT22;3367;48.714;8.994;2023-03-26T05:09:28;6.40;1.00
6662;DHT22;3367;48.714;8.994;2023-03-26T05:11:55;6.40;1.00
6662;DHT22;3367;48.714;8.994;2023-03-26T05:14:23;6.40;1.00
6662;DHT22;3367;48.714;8.994;2023-03-26T05:16:50;6.40;99.90
6662;DHT22;3367;48.714;8.994;2023-03-26T05:19:20;6.40;99.90
6662;DHT22;3367;48.714;8.994;2023-03-26T05:21:46;6.40;99.90
6662;DHT22;3367;48.714;8.994;2023-03-26T05:24:13;6.50;99.90
6662;DHT22;3367;48.714;8.994;2023-03-26T05:26:40;6.50;99.90
6662;DHT22;3367;48.714;8.994;2023-03-26T05:29:07;6.50;99.90
6662;DHT22;3367;48.714;8.994;2023-03-26T05:31:33;6.50;99.90
6662;DHT22;3367;48.714;8.994;2023-03-26T05:34:00;6.50;99.90
6662;DHT22;3367;48.714;8.994;2023-03-26T05:36:29;6.50;99.90
6662;DHT22;3367;48.714;8.994;2023-03-26T05:38:55;6.50;99.90
6662;DHT22;3367;48.714;8.994;2023-03-26T05:41:22;6.50;99.90
6662;DHT22;3367;48.714;8.994;2023-03-26T05:43:49;6.50;99.90
6662;DHT22;3367;48.714;8.994;2023-03-26T05:46:15;6.60;1.00
6662;DHT22;3367;48.714;8.994;2023-03-26T05:48:45;6.60;1.00
6662;DHT22;3367;48.714;8.994;2023-03-26T05:51:12;6.60;1.00
6662;DHT22;3367;48.714;8.994;2023-03-26T05:53:41;6.60;1.00
6662;DHT22;3367;48.714;8.994;2023-03-26T05:56:08;6.60;1.00
6662;DHT22;3367;48.714;8.994;2023-03-26T05:58:36;6.70;1.00
6662;DHT22;3367;48.714;8.994;2023-03-26T06:01:04;6.70;1.00
6662;DHT22;3367;48.714;8.994;2023-03-26T06:03:34;6.70;1.00
6662;DHT22;3367;48.714;8.994;2023-03-26T06:06:00;6.80;1.00
6662;DHT22;3367;48.714;8.994;2023-03-26T06:08:28;6.80;1.00
6662;DHT22;3367;48.714;8.994;2023-03-26T06:11:01;6.80;99.90
6662;DHT22;3367;48.714;8.994;2023-03-26T06:13:28;6.80;99.90
6662;DHT22;3367;48.714;8.994;2023-03-26T06:15:56;6.80;99.90
6662;DHT22;3367;48.714;8.994;2023-03-26T06:18:23;6.80;99.90
6662;DHT22;3367;48.714;8.994;2023-03-26T06:20:51;6.90;99.90
6662;DHT22;3367;48.714;8.994;2023-03-26T06:23:18;6.90;93.80
6662;DHT22;3367;48.714;8.994;2023-03-26T06:25:44;7.00;23.30
6662;DHT22;3367;48.714;8.994;2023-03-26T06:28:14;7.00;17.30
6662;DHT22;3367;48.714;8.994;2023-03-26T06:30:41;7.10;1.00
6662;DHT22;3367;48.714;8.994;2023-03-26T06:33:07;7.10;1.00
6662;DHT22;3367;48.714;8.994;2023-03-26T06:35:34;7.20;1.00
6662;DHT22;3367;48.714;8.994;2023-03-26T06:38:01;7.20;1.00
6662;DHT22;3367;48.714;8.994;2023-03-26T06:40:28;7.20;1.00
6662;DHT22;3367;48.714;8.994;2023-03-26T06:42:54;7.20;1.00
6662;DHT22;3367;48.714;8.994;2023-03-26T06:45:23;7.30;1.00
6662;DHT22;3367;48.714;8.994;2023-03-26T06:47:49;7.30;99.90
6662;DHT22;3367;48.714;8.994;2023-03-26T06:50:16;7.30;99.90
6662;DHT22;3367;48.714;8.994;2023-03-26T06:52:43;7.40;99.90
6662;DHT22;3367;48.714;8.994;2023-03-26T06:55:09;7.40;99.90
6662;DHT22;3367;48.714;8.994;2023-03-26T06:57:37;7.40;99.90
6662;DHT22;3367;48.714;8.994;2023-03-26T07:00:05;7.40;99.90
6662;DHT22;3367;48.714;8.994;2023-03-26T07:02:34;7.40;99.90
6662;DHT22;3367;48.714;8.994;2023-03-26T07:05:01;7.40;99.90
6662;DHT22;3367;48.714;8.994;2023-03-26T07:07:28;7.40;99.90
6662;DHT22;3367;48.714;8.994;2023-03-26T07:09:55;7.40;99.90
6662;DHT22;3367;48.714;8.994;2023-03-26T07:12:21;7.50;99.90
6662;DHT22;3367;48.714;8.994;2023-03-26T07:14:48;7.50;99.90
6662;DHT22;3367;48.714;8.994;2023-03-26T07:17:15;7.50;99.90
6662;DHT22;3367;48.714;8.994;2023-03-26T07:19:43;7.40;99.90
6662;DHT22;3367;48.714;8.994;2023-03-26T07:22:14;7.40;1.00
6662;DHT22;3367;48.714;8.994;2023-03-26T07:24:41;7.40;1.00
6662;DHT22;3367;48.714;8.994;2023-03-26T07:27:14;7.40;1.00
6662;DHT22;3367;48.714;8.994;2023-03-26T07:29:45;7.30;1.00
6662;DHT22;3367;48.714;8.994;2023-03-26T07:32:18;7.30;1.00
6662;DHT22;3367;48.714;8.994;2023-03-26T07:34:54;7.20;1.00
6662;DHT22;3367;48.714;8.994;2023-03-26T07:37:32;7.20;99.90
6662;DHT22;3367;48.714;8.994;2023-03-26T07:40:07;7.20;50.50
6662;DHT22;3367;48.714;8.994;2023-03-26T07:42:49;7.20;99.90
6662;DHT22;3367;48.714;8.994;2023-03-26T07:45:23;7.20;99.90
6662;DHT22;3367;48.714;8.994;2023-03-26T07:47:51;7.20;1.00
6662;DHT22;3367;48.714;8.994;2023-03-26T07:50:23;7.20;1.00
6662;DHT22;3367;48.714;8.994;2023-03-26T07:52:51;7.10;1.00
6662;DHT22;3367;48.714;8.994;2023-03-26T07:55:18;7.10;1.00
6662;DHT22;3367;48.714;8.994;2023-03-26T07:57:53;7.10;1.00
6662;DHT22;3367;48.714;8.994;2023-03-26T08:00:27;7.10;58.30
6662;DHT22;3367;48.714;8.994;2023-03-26T08:03:18;7.10;99.90
6662;DHT22;3367;48.714;8.994;2023-03-26T08:05:55;7.00;1.00
6662;DHT22;3367;48.714;8.994;2023-03-26T08:08:31;7.00;99.90
6662;DHT22;3367;48.714;8.994;2023-03-26T08:11:21;7.00;99.90
6662;DHT22;3367;48.714;8.994;2023-03-26T08:14:14;7.00;1.00
6662;DHT22;3367;48.714;8.994;2023-03-26T08:16:50;7.00;1.00
6662;DHT22;3367;48.714;8.994;2023-03-26T08:19:31;7.00;1.00
6662;DHT22;3367;48.714;8.994;2023-03-26T08:22:09;7.10;45.60
6662;DHT22;3367;48.714;8.994;2023-03-26T08:24:41;7.10;99.90
6662;DHT22;3367;48.714;8.994;2023-03-26T08:27:17;7.10;99.90
6662;DHT22;3367;48.714;8.994;2023-03-26T08:29:50;7.20;99.90
6662;DHT22;3367;48.714;8.994;2023-03-26T08:32:20;7.20;99.90
6662;DHT22;3367;48.714;8.994;2023-03-26T08:34:46;7.30;1.00
6662;DHT22;3367;48.714;8.994;2023-03-26T08:37:15;7.40;99.90
6662;DHT22;3367;48.714;8.994;2023-03-26T08:39:42;7.50;99.90
6662;DHT22;3367;48.714;8.994;2023-03-26T08:42:55;7.60;1.00
6662;DHT22;3367;48.714;8.994;2023-03-26T08:45:48;7.70;1.00
6662;DHT22;3367;48.714;8.994;2023-03-26T08:51:40;8.00;1.00
6662;DHT22;3367;48.714;8.994;2023-03-26T08:57:44;8.00;99.90
6662;DHT22;3367;48.714;8.994;2023-03-26T09:00:28;8.00;99.90
6662;DHT22;3367;48.714;8.994;2023-03-26T09:03:22;8.20;1.00
6662;DHT22;3367;48.714;8.994;2023-03-26T09:09:31;8.60;99.90
6662;DHT22;3367;48.714;8.994;2023-03-26T09:12:38;8.80;60.10
6662;DHT22;3367;48.714;8.994;2023-03-26T09:18:39;9.30;1.00
6662;DHT22;3367;48.714;8.994;2023-03-26T09:24:33;9.60;99.90
6662;DHT22;3367;48.714;8.994;2023-03-26T09:27:29;9.60;1.00
6662;DHT22;3367;48.714;8.994;2023-03-26T09:36:20;10.10;1.00
6662;DHT22;3367;48.714;8.994;2023-03-26T09:38:51;10.30;1.00
6662;DHT22;3367;48.714;8.994;2023-03-26T09:41:29;10.70;1.00
6662;DHT22;3367;48.714;8.994;2023-03-26T09:44:25;11.20;1.00
6662;DHT22;3367;48.714;8.994;2023-03-26T09:49:52;12.20;64.60
6662;DHT22;3367;48.714;8.994;2023-03-26T09:52:41;12.30;1.00
6662;DHT22;3367;48.714;8.994;2023-03-26T09:55:26;12.10;1.00
6662;DHT22;3367;48.714;8.994;2023-03-26T10:00:56;11.90;1.00
6662;DHT22;3367;48.714;8.994;2023-03-26T10:03:38;11.70;1.00
6662;DHT22;3367;48.714;8.994;2023-03-26T10:06:13;11.60;1.00
6662;DHT22;3367;48.714;8.994;2023-03-26T10:08:53;11.40;1.00
6662;DHT22;3367;48.714;8.994;2023-03-26T10:11:33;11.40;1.00
6662;DHT22;3367;48.714;8.994;2023-03-26T10:14:09;11.70;1.00
6662;DHT22;3367;48.714;8.994;2023-03-26T10:16:52;12.10;1.00
6662;DHT22;3367;48.714;8.994;2023-03-26T10:19:32;12.40;99.90
6662;DHT22;3367;48.714;8.994;2023-03-26T10:22:08;12.50;1.00
6662;DHT22;3367;48.714;8.994;2023-03-26T10:24:50;12.50;1.00
6662;DHT22;3367;48.714;8.994;2023-03-26T10:27:31;12.30;1.00
6662;DHT22;3367;48.714;8.994;2023-03-26T10:30:31;12.00;1.00
6662;DHT22;3367;48.714;8.994;2023-03-26T10:33:10;11.80;1.00
6662;DHT22;3367;48.714;8.994;2023-03-26T10:35:47;11.60;1.00
6662;DHT22;3367;48.714;8.994;2023-03-26T10:38:23;11.60;1.00
6662;DHT22;3367;48.714;8.994;2023-03-26T10:41:00;11.50;1.00
6662;DHT22;3367;48.714;8.994;2023-03-26T10:44:02;11.30;1.00
6662;DHT22;3367;48.714;8.994;2023-03-26T10:49:34;11.80;1.00
6662;DHT22;3367;48.714;8.994;2023-03-26T10:52:06;12.10;1.00
6662;DHT22;3367;48.714;8.994;2023-03-26T10:54:43;12.00;1.00
6662;DHT22;3367;48.714;8.994;2023-03-26T10:57:22;12.00;1.00
6662;DHT22;3367;48.714;8.994;2023-03-26T10:59:51;11.80;1.00
6662;DHT22;3367;48.714;8.994;2023-03-26T11:02:27;11.80;1.00
6662;DHT22;3367;48.714;8.994;2023-03-26T11:05:13;11.70;1.00
6662;DHT22;3367;48.714;8.994;2023-03-26T11:07:48;11.80;1.00
6662;DHT22;3367;48.714;8.994;2023-03-26T11:10:24;11.90;1.00
6662;DHT22;3367;48.714;8.994;2023-03-26T11:13:09;12.00;1.00
6662;DHT22;3367;48.714;8.994;2023-03-26T11:15:42;12.00;1.00
6662;DHT22;3367;48.714;8.994;2023-03-26T11:18:14;12.00;1.00
6662;DHT22;3367;48.714;8.994;2023-03-26T11:20:46;11.80;1.00
6662;DHT22;3367;48.714;8.994;2023-03-26T11:23:28;11.80;1.00
6662;DHT22;3367;48.714;8.994;2023-03-26T11:26:11;11.90;1.00
6662;DHT22;3367;48.714;8.994;2023-03-26T11:28:50;12.10;1.00
6662;DHT22;3367;48.714;8.994;2023-03-26T11:31:29;12.30;1.00
6662;DHT22;3367;48.714;8.994;2023-03-26T11:34:02;12.40;1.00
6662;DHT22;3367;48.714;8.994;2023-03-26T11:36:35;12.30;1.00
6662;DHT22;3367;48.714;8.994;2023-03-26T11:39:10;12.40;1.00
6662;DHT22;3367;48.714;8.994;2023-03-26T11:41:40;12.50;1.00
6662;DHT22;3367;48.714;8.994;2023-03-26T11:44:15;12.50;1.00
6662;DHT22;3367;48.714;8.994;2023-03-26T11:46:45;12.70;1.00
6662;DHT22;3367;48.714;8.994;2023-03-26T11:49:16;12.60;1.00
6662;DHT22;3367;48.714;8.994;2023-03-26T11:51:45;12.60;1.00
6662;DHT22;3367;48.714;8.994;2023-03-26T11:54:13;12.70;1.00
6662;DHT22;3367;48.714;8.994;2023-03-26T11:56:45;13.00;1.00
6662;DHT22;3367;48.714;8.994;2023-03-26T11:59:14;13.10;1.00
6662;DHT22;3367;48.714;8.994;2023-03-26T12:01:47;13.20;1.00
6662;DHT22;3367;48.714;8.994;2023-03-26T12:04:16;13.30;1.00
6662;DHT22;3367;48.714;8.994;2023-03-26T12:06:50;13.30;1.00
6662;DHT22;3367;48.714;8.994;2023-03-26T12:09:18;13.30;1.00
6662;DHT22;3367;48.714;8.994;2023-03-26T12:11:47;13.40;1.00
6662;DHT22;3367;48.714;8.994;2023-03-26T12:14:17;13.50;1.00
6662;DHT22;3367;48.714;8.994;2023-03-26T12:17:02;13.60;1.00
6662;DHT22;3367;48.714;8.994;2023-03-26T12:19:35;13.80;1.00
6662;DHT22;3367;48.714;8.994;2023-03-26T12:22:04;13.70;1.00
6662;DHT22;3367;48.714;8.994;2023-03-26T12:24:32;13.70;1.00
6662;DHT22;3367;48.714;8.994;2023-03-26T12:27:19;13.60;1.00
6662;DHT22;3367;48.714;8.994;2023-03-26T12:29:50;13.50;1.00
6662;DHT22;3367;48.714;8.994;2023-03-26T12:32:17;13.60;1.00
6662;DHT22;3367;48.714;8.994;2023-03-26T12:34:44;13.70;1.00
6662;DHT22;3367;48.714;8.994;2023-03-26T12:37:32;13.70;1.00
6662;DHT22;3367;48.714;8.994;2023-03-26T12:40:06;14.20;1.00
6662;DHT22;3367;48.714;8.994;2023-03-26T12:42:39;14.30;1.00
6662;DHT22;3367;48.714;8.994;2023-03-26T12:45:12;14.20;1.00
6662;DHT22;3367;48.714;8.994;2023-03-26T12:47:39;13.80;1.00
6662;DHT22;3367;48.714;8.994;2023-03-26T12:50:11;13.50;1.00
6662;DHT22;3367;48.714;8.994;2023-03-26T12:52:59;13.30;1.00
6662;DHT22;3367;48.714;8.994;2023-03-26T12:55:41;13.40;1.00
6662;DHT22;3367;48.714;8.994;2023-03-26T12:58:27;13.50;1.00
6662;DHT22;3367;48.714;8.994;2023-03-26T13:01:02;13.60;1.00
6662;DHT22;3367;48.714;8.994;2023-03-26T13:03:52;13.40;1.00
6662;DHT22;3367;48.714;8.994;2023-03-26T13:06:31;13.50;1.00
6662;DHT22;3367;48.714;8.994;2023-03-26T13:09:26;13.80;1.00
6662;DHT22;3367;48.714;8.994;2023-03-26T13:12:07;14.30;1.00
6662;DHT22;3367;48.714;8.994;2023-03-26T13:14:54;14.50;1.00
6662;DHT22;3367;48.714;8.994;2023-03-26T13:17:28;14.50;1.00
6662;DHT22;3367;48.714;8.994;2023-03-26T13:20:02;14.80;1.00
6662;DHT22;3367;48.714;8.994;2023-03-26T13:22:40;14.90;1.00
6662;DHT22;3367;48.714;8.994;2023-03-26T13:25:20;15.10;1.00
6662;DHT22;3367;48.714;8.994;2023-03-26T13:27:54;15.30;1.00
6662;DHT22;3367;48.714;8.994;2023-03-26T13:30:30;15.20;1.00
6662;DHT22;3367;48.714;8.994;2023-03-26T13:33:17;14.90;1.00
6662;DHT22;3367;48.714;8.994;2023-03-26T13:35:50;14.70;1.00
6662;DHT22;3367;48.714;8.994;2023-03-26T13:38:25;14.40;1.00
6662;DHT22;3367;48.714;8.994;2023-03-26T13:41:01;14.30;1.00
6662;DHT22;3367;48.714;8.994;2023-03-26T13:43:49;14.20;1.00
6662;DHT22;3367;48.714;8.994;2023-03-26T13:46:27;14.00;1.00
6662;DHT22;3367;48.714;8.994;2023-03-26T13:48:58;13.90;1.00
6662;DHT22;3367;48.714;8.994;2023-03-26T13:51:30;13.70;1.00
6662;DHT22;3367;48.714;8.994;2023-03-26T13:54:05;13.70;1.00
6662;DHT22;3367;48.714;8.994;2023-03-26T13:56:37;13.70;1.00
6662;DHT22;3367;48.714;8.994;2023-03-26T13:59:11;13.80;1.00
6662;DHT22;3367;48.714;8.994;2023-03-26T14:01:45;13.90;1.00
6662;DHT22;3367;48.714;8.994;2023-03-26T14:04:17;13.90;1.00
6662;DHT22;3367;48.714;8.994;2023-03-26T14:06:48;13.50;1.00
6662;DHT22;3367;48.714;8.994;2023-03-26T14:09:25;13.20;1.00
6662;DHT22;3367;48.714;8.994;2023-03-26T14:12:15;12.60;1.00
6662;DHT22;3367;48.714;8.994;2023-03-26T14:14:48;11.80;1.00
6662;DHT22;3367;48.714;8.994;2023-03-26T14:17:21;11.30;1.00
6662;DHT22;3367;48.714;8.994;2023-03-26T14:20:25;10.50;1.00
6662;DHT22;3367;48.714;8.994;2023-03-26T14:23:06;9.80;99.90
6662;DHT22;3367;48.714;8.994;2023-03-26T14:25:52;9.40;99.90
6662;DHT22;3367;48.714;8.994;2023-03-26T14:28:46;9.20;99.90
6662;DHT22;3367;48.714;8.994;2023-03-26T14:31:20;8.70;99.90
6662;DHT22;3367;48.714;8.994;2023-03-26T14:34:18;8.90;1.00
6662;DHT22;3367;48.714;8.994;2023-03-26T14:37:02;8.90;1.00
6662;DHT22;3367;48.714;8.994;2023-03-26T14:39:43;8.90;1.00
6662;DHT22;3367;48.714;8.994;2023-03-26T14:42:18;8.90;1.00
6662;DHT22;3367;48.714;8.994;2023-03-26T14:45:07;9.00;1.00
6662;DHT22;3367;48.714;8.994;2023-03-26T14:47:36;9.20;1.00
6662;DHT22;3367;48.714;8.994;2023-03-26T14:50:35;9.30;1.00
6662;DHT22;3367;48.714;8.994;2023-03-26T14:53:13;9.50;1.00
6662;DHT22;3367;48.714;8.994;2023-03-26T14:56:07;9.50;99.90
6662;DHT22;3367;48.714;8.994;2023-03-26T14:59:02;9.50;99.90
6662;DHT22;3367;48.714;8.994;2023-03-26T15:01:51;9.50;99.90
6662;DHT22;3367;48.714;8.994;2023-03-26T15:04:42;9.50;99.90
6662;DHT22;3367;48.714;8.994;2023-03-26T15:07:46;9.50;99.90
6662;DHT22;3367;48.714;8.994;2023-03-26T15:10:37;9.40;99.90
6662;DHT22;3367;48.714;8.994;2023-03-26T15:13:40;9.30;1.00
6662;DHT22;3367;48.714;8.994;2023-03-26T15:29:09;8.10;1.00
6662;DHT22;3367;48.714;8.994;2023-03-26T15:32:06;7.90;1.00
6662;DHT22;3367;48.714;8.994;2023-03-26T15:35:10;7.80;99.90
6662;DHT22;3367;48.714;8.994;2023-03-26T15:40:59;7.60;1.00
6662;DHT22;3367;48.714;8.994;2023-03-26T15:44:07;7.50;99.90
6662;DHT22;3367;48.714;8.994;2023-03-26T15:46:58;7.40;99.90
6662;DHT22;3367;48.714;8.994;2023-03-26T15:49:39;7.30;1.00
6662;DHT22;3367;48.714;8.994;2023-03-26T15:52:18;7.30;1.00
6662;DHT22;3367;48.714;8.994;2023-03-26T15:54:51;7.40;1.00
6662;DHT22;3367;48.714;8.994;2023-03-26T15:57:27;7.40;1.00
6662;DHT22;3367;48.714;8.994;2023-03-26T16:00:04;7.50;99.90
6662;DHT22;3367;48.714;8.994;2023-03-26T16:02:42;7.50;99.90
6662;DHT22;3367;48.714;8.994;2023-03-26T16:05:29;7.50;99.90
6662;DHT22;3367;48.714;8.994;2023-03-26T16:08:08;7.60;99.90
6662;DHT22;3367;48.714;8.994;2023-03-26T16:10:44;7.70;99.90
6662;DHT22;3367;48.714;8.994;2023-03-26T16:13:26;7.70;1.00
6662;DHT22;3367;48.714;8.994;2023-03-26T16:16:00;7.70;1.00
6662;DHT22;3367;48.714;8.994;2023-03-26T16:18:37;7.80;1.00
6662;DHT22;3367;48.714;8.994;2023-03-26T16:21:41;7.80;1.00
6662;DHT22;3367;48.714;8.994;2023-03-26T16:24:21;7.80;1.00
6662;DHT22;3367;48.714;8.994;2023-03-26T16:27:01;7.80;1.00
6662;DHT22;3367;48.714;8.994;2023-03-26T16:32:43;7.70;1.00
6662;DHT22;3367;48.714;8.994;2023-03-26T16:38:15;7.60;1.00
6662;DHT22;3367;48.714;8.994;2023-03-26T16:40:55;7.50;1.00
6662;DHT22;3367;48.714;8.994;2023-03-26T16:43:41;7.40;1.00
6662;DHT22;3367;48.714;8.994;2023-03-26T16:46:17;7.30;1.00
6662;DHT22;3367;48.714;8.994;2023-03-26T16:48:54;7.30;1.00
6662;DHT22;3367;48.714;8.994;2023-03-26T16:51:26;7.30;1.00
6662;DHT22;3367;48.714;8.994;2023-03-26T16:54:05;7.30;1.00
6662;DHT22;3367;48.714;8.994;2023-03-26T16:56:43;7.40;1.00
6662;DHT22;3367;48.714;8.994;2023-03-26T16:59:30;7.50;1.00
6662;DHT22;3367;48.714;8.994;2023-03-26T17:02:12;7.40;1.00
6662;DHT22;3367;48.714;8.994;2023-03-26T17:04:44;7.30;1.00
6662;DHT22;3367;48.714;8.994;2023-03-26T17:07:15;7.30;1.00
6662;DHT22;3367;48.714;8.994;2023-03-26T17:09:52;7.30;7.50
6662;DHT22;3367;48.714;8.994;2023-03-26T17:12:29;7.20;2.60
6662;DHT22;3367;48.714;8.994;2023-03-26T17:15:05;7.20;1.00
6662;DHT22;3367;48.714;8.994;2023-03-26T17:17:46;7.10;64.20
6662;DHT22;3367;48.714;8.994;2023-03-26T17:20:24;7.10;1.00
6662;DHT22;3367;48.714;8.994;2023-03-26T17:23:04;7.00;1.00
6662;DHT22;3367;48.714;8.994;2023-03-26T17:25:39;7.00;17.30
6662;DHT22;3367;48.714;8.994;2023-03-26T17:28:21;7.00;99.90
6662;DHT22;3367;48.714;8.994;2023-03-26T17:31:04;6.90;99.90
6662;DHT22;3367;48.714;8.994;2023-03-26T17:33:32;6.90;99.90
6662;DHT22;3367;48.714;8.994;2023-03-26T17:36:41;6.80;99.90
6662;DHT22;3367;48.714;8.994;2023-03-26T17:40:24;6.80;99.90
6662;DHT22;3367;48.714;8.994;2023-03-26T17:42:37;6.70;99.90
6662;DHT22;3367;48.714;8.994;2023-03-26T17:45:07;6.70;99.90
6662;DHT22;3367;48.714;8.994;2023-03-26T17:47:37;6.60;99.90
6662;DHT22;3367;48.714;8.994;2023-03-26T17:50:11;6.50;99.90
6662;DHT22;3367;48.714;8.994;2023-03-26T17:52:47;6.50;1.00
6662;DHT22;3367;48.714;8.994;2023-03-26T17:55:17;6.50;1.00
6662;DHT22;3367;48.714;8.994;2023-03-26T17:57:49;6.40;1.00
6662;DHT22;3367;48.714;8.994;2023-03-26T18:00:20;6.30;1.00
6662;DHT22;3367;48.714;8.994;2023-03-26T18:02:51;6.30;1.00
6662;DHT22;3367;48.714;8.994;2023-03-26T18:05:21;6.30;1.00